sensor_id;sensor_type;location;lat;lon;timestamp;temperature;humidity
20862;DHT22;10591;52.532;13.348;2022-09-16T00:02:03;12.35;79.59
20862;DHT22;10591;52.532;13.348;2022-09-16T00:04:33;12.42;79.16
20862;DHT22;10591;52.532;13.348;2022-09-16T00:07:04;12.33;79.34
20862;DHT22;10591;52.532;13.348;2022-09-16T00:09:36;12.37;79.08
20862;DHT22;10591;52.532;13.348;2022-09-16T00:12:07;12.22;79.09
20862;DHT22;10591;52.532;13.348;2022-09-16T00:14:39;12.26;79.27
20862;DHT22;10591;52.532;13.348;2022-09-16T00:17:09;12.22;79.22
20862;DHT22;10591;52.532;13.348;2022-09-16T00:19:40;12.16;79.30
20862;DHT22;10591;52.532;13.348;2022-09-16T00:22:10;12.14;79.00
20862;DHT22;10591;52.532;13.348;2022-09-16T00:24:40;12.18;78.91
20862;DHT22;10591;52.532;13.348;2022-09-16T00:27:11;12.14;79.10
20862;DHT22;10591;52.532;13.348;2022-09-16T00:29:41;12.10;79.14
20862;DHT22;10591;52.532;13.348;2022-09-16T00:32:12;12.04;79.48
20862;DHT22;10591;52.532;13.348;2022-09-16T00:34:42;12.04;79.23
20862;DHT22;10591;52.532;13.348;2022-09-16T00:37:13;11.99;79.42
20862;DHT22;10591;52.532;13.348;2022-09-16T00:39:45;12.02;79.32
20862;DHT22;10591;52.532;13.348;2022-09-16T00:42:17;12.00;79.47
20862;DHT22;10591;52.532;13.348;2022-09-16T00:45:02;11.97;79.41
20862;DHT22;10591;52.532;13.348;2022-09-16T00:47:36;12.03;79.15
20862;DHT22;10591;52.532;13.348;2022-09-16T00:50:09;11.95;79.28
20862;DHT22;10591;52.532;13.348;2022-09-16T00:52:41;11.90;79.60
20862;DHT22;10591;52.532;13.348;2022-09-16T00:55:14;11.97;79.51
20862;DHT22;10591;52.532;13.348;2022-09-16T00:57:45;11.93;79.50
20862;DHT22;10591;52.532;13.348;2022-09-16T01:00:18;11.90;79.99
20862;DHT22;10591;52.532;13.348;2022-09-16T01:02:49;11.88;80.19
20862;DHT22;10591;52.532;13.348;2022-09-16T01:05:22;11.86;80.18
20862;DHT22;10591;52.532;13.348;2022-09-16T01:07:55;11.78;80.58
20862;DHT22;10591;52.532;13.348;2022-09-16T01:10:26;11.78;80.51
20862;DHT22;10591;52.532;13.348;2022-09-16T01:13:02;11.73;80.99
20862;DHT22;10591;52.532;13.348;2022-09-16T01:16:36;11.78;80.66
20862;DHT22;10591;52.532;13.348;2022-09-16T01:18:21;11.78;80.90
20862;DHT22;10591;52.532;13.348;2022-09-16T01:21:00;11.70;81.13
20862;DHT22;10591;52.532;13.348;2022-09-16T01:35:12;11.73;81.84
20862;DHT22;10591;52.532;13.348;2022-09-16T01:40:26;11.64;82.14
20862;DHT22;10591;52.532;13.348;2022-09-16T01:45:37;11.54;82.75
20862;DHT22;10591;52.532;13.348;2022-09-16T01:48:31;11.54;82.80
20862;DHT22;10591;52.532;13.348;2022-09-16T01:53:45;11.52;82.96
20862;DHT22;10591;52.532;13.348;2022-09-16T01:56:26;11.56;83.19
20862;DHT22;10591;52.532;13.348;2022-09-16T01:59:14;11.44;83.50
20862;DHT22;10591;52.532;13.348;2022-09-16T02:01:53;11.42;83.71
20862;DHT22;10591;52.532;13.348;2022-09-16T02:04:32;11.39;83.79
20862;DHT22;10591;52.532;13.348;2022-09-16T02:06:58;11.47;83.69
20862;DHT22;10591;52.532;13.348;2022-09-16T02:09:32;11.44;83.78
20862;DHT22;10591;52.532;13.348;2022-09-16T02:12:06;11.41;83.92
20862;DHT22;10591;52.532;13.348;2022-09-16T02:14:42;11.56;83.71
20862;DHT22;10591;52.532;13.348;2022-09-16T02:17:16;11.48;84.08
20862;DHT22;10591;52.532;13.348;2022-09-16T02:20:01;11.40;84.15
20862;DHT22;10591;52.532;13.348;2022-09-16T02:22:36;11.38;84.15
20862;DHT22;10591;52.532;13.348;2022-09-16T02:25:07;11.38;84.29
20862;DHT22;10591;52.532;13.348;2022-09-16T02:27:40;11.42;84.20
20862;DHT22;10591;52.532;13.348;2022-09-16T02:30:21;11.42;84.23
20862;DHT22;10591;52.532;13.348;2022-09-16T02:32:50;11.48;84.22
20862;DHT22;10591;52.532;13.348;2022-09-16T02:35:21;11.39;84.34
20862;DHT22;10591;52.532;13.348;2022-09-16T02:38:02;11.38;84.53
20862;DHT22;10591;52.532;13.348;2022-09-16T02:40:34;11.30;84.60
20862;DHT22;10591;52.532;13.348;2022-09-16T02:43:05;11.37;84.62
20862;DHT22;10591;52.532;13.348;2022-09-16T02:53:51;11.28;85.02
20862;DHT22;10591;52.532;13.348;2022-09-16T02:56:31;11.30;84.89
20862;DHT22;10591;52.532;13.348;2022-09-16T02:59:03;11.24;84.94
20862;DHT22;10591;52.532;13.348;2022-09-16T03:01:37;11.24;85.15
20862;DHT22;10591;52.532;13.348;2022-09-16T03:04:11;11.24;85.11
20862;DHT22;10591;52.532;13.348;2022-09-16T03:06:42;11.20;85.20
20862;DHT22;10591;52.532;13.348;2022-09-16T03:09:14;11.26;85.16
20862;DHT22;10591;52.532;13.348;2022-09-16T03:17:45;11.28;84.97
20862;DHT22;10591;52.532;13.348;2022-09-16T03:20:28;11.25;85.15
20862;DHT22;10591;52.532;13.348;2022-09-16T03:31:30;11.21;85.36
20862;DHT22;10591;52.532;13.348;2022-09-16T03:33:54;11.21;85.31
20862;DHT22;10591;52.532;13.348;2022-09-16T03:36:27;11.16;85.28
20862;DHT22;10591;52.532;13.348;2022-09-16T03:39:00;11.20;85.14
20862;DHT22;10591;52.532;13.348;2022-09-16T03:41:32;11.13;85.45
20862;DHT22;10591;52.532;13.348;2022-09-16T03:44:04;11.12;85.38
20862;DHT22;10591;52.532;13.348;2022-09-16T03:46:34;11.14;85.50
20862;DHT22;10591;52.532;13.348;2022-09-16T03:49:04;11.20;85.43
20862;DHT22;10591;52.532;13.348;2022-09-16T03:51:36;11.12;85.39
20862;DHT22;10591;52.532;13.348;2022-09-16T03:54:08;11.10;85.50
20862;DHT22;10591;52.532;13.348;2022-09-16T03:56:38;11.10;85.33
20862;DHT22;10591;52.532;13.348;2022-09-16T03:59:09;11.16;85.28
20862;DHT22;10591;52.532;13.348;2022-09-16T04:01:39;11.12;85.50
20862;DHT22;10591;52.532;13.348;2022-09-16T04:04:10;11.23;85.58
20862;DHT22;10591;52.532;13.348;2022-09-16T04:06:40;11.10;85.41
20862;DHT22;10591;52.532;13.348;2022-09-16T04:09:11;11.06;85.35
20862;DHT22;10591;52.532;13.348;2022-09-16T04:11:42;11.02;85.73
20862;DHT22;10591;52.532;13.348;2022-09-16T04:14:13;11.00;85.77
20862;DHT22;10591;52.532;13.348;2022-09-16T04:16:43;10.97;85.74
20862;DHT22;10591;52.532;13.348;2022-09-16T04:19:14;10.98;85.79
20862;DHT22;10591;52.532;13.348;2022-09-16T04:21:45;11.05;85.53
20862;DHT22;10591;52.532;13.348;2022-09-16T04:24:15;10.92;85.71
20862;DHT22;10591;52.532;13.348;2022-09-16T04:26:45;10.96;85.56
20862;DHT22;10591;52.532;13.348;2022-09-16T04:29:16;10.99;85.47
20862;DHT22;10591;52.532;13.348;2022-09-16T04:31:46;11.00;85.75
20862;DHT22;10591;52.532;13.348;2022-09-16T04:34:17;11.00;85.43
20862;DHT22;10591;52.532;13.348;2022-09-16T04:36:47;10.96;85.60
20862;DHT22;10591;52.532;13.348;2022-09-16T04:39:18;10.91;85.73
20862;DHT22;10591;52.532;13.348;2022-09-16T04:41:48;10.89;85.75
20862;DHT22;10591;52.532;13.348;2022-09-16T04:44:19;10.89;85.63
20862;DHT22;10591;52.532;13.348;2022-09-16T04:46:50;10.94;85.50
20862;DHT22;10591;52.532;13.348;2022-09-16T04:49:20;10.91;85.77
20862;DHT22;10591;52.532;13.348;2022-09-16T04:51:50;10.87;85.63
20862;DHT22;10591;52.532;13.348;2022-09-16T04:54:21;10.88;85.60
20862;DHT22;10591;52.532;13.348;2022-09-16T04:56:51;10.90;85.54
20862;DHT22;10591;52.532;13.348;2022-09-16T04:59:23;10.90;85.49
20862;DHT22;10591;52.532;13.348;2022-09-16T05:01:53;10.82;85.66
20862;DHT22;10591;52.532;13.348;2022-09-16T05:04:24;10.84;85.67
20862;DHT22;10591;52.532;13.348;2022-09-16T05:06:54;10.86;85.62
20862;DHT22;10591;52.532;13.348;2022-09-16T05:09:25;10.88;85.56
20862;DHT22;10591;52.532;13.348;2022-09-16T05:11:56;10.83;85.58
20862;DHT22;10591;52.532;13.348;2022-09-16T05:14:26;10.78;85.49
20862;DHT22;10591;52.532;13.348;2022-09-16T05:16:57;10.88;85.37
20862;DHT22;10591;52.532;13.348;2022-09-16T05:19:27;10.93;85.22
20862;DHT22;10591;52.532;13.348;2022-09-16T05:21:57;10.88;85.49
20862;DHT22;10591;52.532;13.348;2022-09-16T05:24:28;10.82;85.36
20862;DHT22;10591;52.532;13.348;2022-09-16T05:26:58;10.84;85.11
20862;DHT22;10591;52.532;13.348;2022-09-16T05:29:29;10.97;85.20
20862;DHT22;10591;52.532;13.348;2022-09-16T05:31:59;10.90;85.02
20862;DHT22;10591;52.532;13.348;2022-09-16T05:34:30;10.88;85.07
20862;DHT22;10591;52.532;13.348;2022-09-16T05:37:01;10.94;85.06
20862;DHT22;10591;52.532;13.348;2022-09-16T05:39:33;11.03;84.73
20862;DHT22;10591;52.532;13.348;2022-09-16T05:42:04;11.05;84.92
20862;DHT22;10591;52.532;13.348;2022-09-16T05:44:34;11.06;84.72
20862;DHT22;10591;52.532;13.348;2022-09-16T05:47:05;11.09;84.48
20862;DHT22;10591;52.532;13.348;2022-09-16T05:49:35;11.12;84.33
20862;DHT22;10591;52.532;13.348;2022-09-16T05:52:06;11.15;84.10
20862;DHT22;10591;52.532;13.348;2022-09-16T05:54:36;11.13;84.33
20862;DHT22;10591;52.532;13.348;2022-09-16T05:57:07;11.08;84.08
20862;DHT22;10591;52.532;13.348;2022-09-16T05:59:37;11.06;84.31
20862;DHT22;10591;52.532;13.348;2022-09-16T06:02:08;11.16;84.07
20862;DHT22;10591;52.532;13.348;2022-09-16T06:04:40;11.24;84.07
20862;DHT22;10591;52.532;13.348;2022-09-16T06:07:10;11.22;83.85
20862;DHT22;10591;52.532;13.348;2022-09-16T06:09:41;11.16;83.87
20862;DHT22;10591;52.532;13.348;2022-09-16T06:12:11;11.26;83.55
20862;DHT22;10591;52.532;13.348;2022-09-16T06:14:42;11.39;83.24
20862;DHT22;10591;52.532;13.348;2022-09-16T06:17:13;11.50;83.12
20862;DHT22;10591;52.532;13.348;2022-09-16T06:19:44;11.51;82.62
20862;DHT22;10591;52.532;13.348;2022-09-16T06:22:14;11.57;82.46
20862;DHT22;10591;52.532;13.348;2022-09-16T06:24:45;11.52;82.51
20862;DHT22;10591;52.532;13.348;2022-09-16T06:27:15;11.65;82.44
20862;DHT22;10591;52.532;13.348;2022-09-16T06:29:46;11.58;82.30
20862;DHT22;10591;52.532;13.348;2022-09-16T06:32:16;11.49;82.49
20862;DHT22;10591;52.532;13.348;2022-09-16T06:34:47;11.48;82.59
20862;DHT22;10591;52.532;13.348;2022-09-16T06:37:18;11.54;82.38
20862;DHT22;10591;52.532;13.348;2022-09-16T06:39:49;11.61;82.17
20862;DHT22;10591;52.532;13.348;2022-09-16T06:42:20;11.60;82.28
20862;DHT22;10591;52.532;13.348;2022-09-16T06:44:50;11.66;81.49
20862;DHT22;10591;52.532;13.348;2022-09-16T06:47:20;11.74;81.29
20862;DHT22;10591;52.532;13.348;2022-09-16T06:49:51;11.84;81.26
20862;DHT22;10591;52.532;13.348;2022-09-16T06:52:21;11.99;80.83
20862;DHT22;10591;52.532;13.348;2022-09-16T06:54:53;11.98;80.91
20862;DHT22;10591;52.532;13.348;2022-09-16T06:57:23;11.98;80.63
20862;DHT22;10591;52.532;13.348;2022-09-16T06:59:54;12.08;80.58
20862;DHT22;10591;52.532;13.348;2022-09-16T07:02:24;12.26;79.97
20862;DHT22;10591;52.532;13.348;2022-09-16T07:04:55;12.38;79.75
20862;DHT22;10591;52.532;13.348;2022-09-16T07:07:28;12.42;79.16
20862;DHT22;10591;52.532;13.348;2022-09-16T07:09:59;12.42;78.84
20862;DHT22;10591;52.532;13.348;2022-09-16T07:12:29;12.36;78.92
20862;DHT22;10591;52.532;13.348;2022-09-16T07:15:00;12.43;78.56
20862;DHT22;10591;52.532;13.348;2022-09-16T07:17:30;12.30;78.97
20862;DHT22;10591;52.532;13.348;2022-09-16T07:20:01;12.40;78.76
20862;DHT22;10591;52.532;13.348;2022-09-16T07:22:32;12.30;78.41
20862;DHT22;10591;52.532;13.348;2022-09-16T07:25:02;12.38;78.52
20862;DHT22;10591;52.532;13.348;2022-09-16T07:27:33;12.33;78.62
20862;DHT22;10591;52.532;13.348;2022-09-16T07:30:04;12.52;78.02
20862;DHT22;10591;52.532;13.348;2022-09-16T07:32:36;12.58;78.11
20862;DHT22;10591;52.532;13.348;2022-09-16T07:35:07;12.56;78.03
20862;DHT22;10591;52.532;13.348;2022-09-16T07:37:38;12.49;78.05
20862;DHT22;10591;52.532;13.348;2022-09-16T07:40:10;12.58;77.30
20862;DHT22;10591;52.532;13.348;2022-09-16T07:42:42;12.76;76.88
20862;DHT22;10591;52.532;13.348;2022-09-16T07:45:12;12.82;76.69
20862;DHT22;10591;52.532;13.348;2022-09-16T07:47:43;12.84;76.72
20862;DHT22;10591;52.532;13.348;2022-09-16T07:50:15;12.98;75.89
20862;DHT22;10591;52.532;13.348;2022-09-16T07:52:46;13.08;75.92
20862;DHT22;10591;52.532;13.348;2022-09-16T07:55:16;13.35;74.72
20862;DHT22;10591;52.532;13.348;2022-09-16T07:57:48;13.44;74.30
20862;DHT22;10591;52.532;13.348;2022-09-16T08:00:18;13.36;74.44
20862;DHT22;10591;52.532;13.348;2022-09-16T08:02:49;13.48;74.26
20862;DHT22;10591;52.532;13.348;2022-09-16T08:05:21;13.78;73.79
20862;DHT22;10591;52.532;13.348;2022-09-16T08:07:52;13.86;73.12
20862;DHT22;10591;52.532;13.348;2022-09-16T08:10:22;13.76;73.31
20862;DHT22;10591;52.532;13.348;2022-09-16T08:12:54;13.72;72.79
20862;DHT22;10591;52.532;13.348;2022-09-16T08:15:24;13.67;73.05
20862;DHT22;10591;52.532;13.348;2022-09-16T08:17:54;13.68;73.27
20862;DHT22;10591;52.532;13.348;2022-09-16T08:20:25;13.76;72.88
20862;DHT22;10591;52.532;13.348;2022-09-16T08:22:56;13.77;73.01
20862;DHT22;10591;52.532;13.348;2022-09-16T08:25:27;13.83;72.66
20862;DHT22;10591;52.532;13.348;2022-09-16T08:27:58;13.82;72.65
20862;DHT22;10591;52.532;13.348;2022-09-16T08:30:28;13.90;72.67
20862;DHT22;10591;52.532;13.348;2022-09-16T08:32:58;13.81;72.51
20862;DHT22;10591;52.532;13.348;2022-09-16T08:35:29;13.88;71.76
20862;DHT22;10591;52.532;13.348;2022-09-16T08:38:00;13.91;71.46
20862;DHT22;10591;52.532;13.348;2022-09-16T08:40:33;13.84;71.81
20862;DHT22;10591;52.532;13.348;2022-09-16T08:43:22;13.86;72.05
20862;DHT22;10591;52.532;13.348;2022-09-16T08:46:08;14.00;71.19
20862;DHT22;10591;52.532;13.348;2022-09-16T08:51:19;14.41;70.83
20862;DHT22;10591;52.532;13.348;2022-09-16T08:53:57;14.38;69.72
20862;DHT22;10591;52.532;13.348;2022-09-16T08:56:25;14.46;69.46
20862;DHT22;10591;52.532;13.348;2022-09-16T08:58:59;14.58;69.34
20862;DHT22;10591;52.532;13.348;2022-09-16T09:01:51;14.66;69.20
20862;DHT22;10591;52.532;13.348;2022-09-16T09:04:22;14.62;68.94
20862;DHT22;10591;52.532;13.348;2022-09-16T09:07:06;14.70;68.10
20862;DHT22;10591;52.532;13.348;2022-09-16T09:12:36;14.56;68.29
20862;DHT22;10591;52.532;13.348;2022-09-16T09:15:26;14.69;68.21
20862;DHT22;10591;52.532;13.348;2022-09-16T09:30:16;14.98;63.65
20862;DHT22;10591;52.532;13.348;2022-09-16T09:44:12;15.24;60.82
20862;DHT22;10591;52.532;13.348;2022-09-16T09:46:39;15.08;61.38
20862;DHT22;10591;52.532;13.348;2022-09-16T09:49:35;15.21;61.17
20862;DHT22;10591;52.532;13.348;2022-09-16T09:52:11;15.25;61.50
20862;DHT22;10591;52.532;13.348;2022-09-16T09:54:42;15.16;59.94
20862;DHT22;10591;52.532;13.348;2022-09-16T09:57:26;15.16;59.76
20862;DHT22;10591;52.532;13.348;2022-09-16T10:00:10;14.99;59.64
20862;DHT22;10591;52.532;13.348;2022-09-16T10:02:41;14.98;58.43
20862;DHT22;10591;52.532;13.348;2022-09-16T10:05:20;14.90;58.04
20862;DHT22;10591;52.532;13.348;2022-09-16T10:08:02;14.90;58.93
20862;DHT22;10591;52.532;13.348;2022-09-16T10:10:30;15.12;58.73
20862;DHT22;10591;52.532;13.348;2022-09-16T10:13:09;15.57;56.38
20862;DHT22;10591;52.532;13.348;2022-09-16T10:15:41;15.82;56.03
20862;DHT22;10591;52.532;13.348;2022-09-16T10:18:20;15.90;55.86
20862;DHT22;10591;52.532;13.348;2022-09-16T10:20:55;15.86;56.33
20862;DHT22;10591;52.532;13.348;2022-09-16T10:23:25;15.80;56.80
20862;DHT22;10591;52.532;13.348;2022-09-16T10:26:18;15.61;55.99
20862;DHT22;10591;52.532;13.348;2022-09-16T10:29:00;15.71;57.27
20862;DHT22;10591;52.532;13.348;2022-09-16T10:31:34;15.70;56.01
20862;DHT22;10591;52.532;13.348;2022-09-16T10:34:14;15.86;56.24
20862;DHT22;10591;52.532;13.348;2022-09-16T10:36:45;16.33;55.56
20862;DHT22;10591;52.532;13.348;2022-09-16T10:39:26;16.44;54.02
20862;DHT22;10591;52.532;13.348;2022-09-16T10:41:57;16.40;54.44
20862;DHT22;10591;52.532;13.348;2022-09-16T10:44:30;16.33;54.13
20862;DHT22;10591;52.532;13.348;2022-09-16T10:47:06;16.64;53.32
20862;DHT22;10591;52.532;13.348;2022-09-16T10:49:50;16.76;52.99
20862;DHT22;10591;52.532;13.348;2022-09-16T10:52:24;16.76;53.14
20862;DHT22;10591;52.532;13.348;2022-09-16T10:54:55;16.78;53.58
20862;DHT22;10591;52.532;13.348;2022-09-16T10:57:28;16.66;53.04
20862;DHT22;10591;52.532;13.348;2022-09-16T11:00:28;16.56;53.21
20862;DHT22;10591;52.532;13.348;2022-09-16T11:08:36;16.64;53.80
20862;DHT22;10591;52.532;13.348;2022-09-16T11:17:10;16.17;52.85
20862;DHT22;10591;52.532;13.348;2022-09-16T11:22:36;16.50;51.79
20862;DHT22;10591;52.532;13.348;2022-09-16T11:31:02;17.00;49.58
20862;DHT22;10591;52.532;13.348;2022-09-16T11:33:52;16.37;50.96
20862;DHT22;10591;52.532;13.348;2022-09-16T11:42:18;23.64;36.83
20862;DHT22;10591;52.532;13.348;2022-09-16T11:44:48;25.87;33.50
20862;DHT22;10591;52.532;13.348;2022-09-16T11:47:44;22.95;37.31
20862;DHT22;10591;52.532;13.348;2022-09-16T11:50:40;20.88;42.16
20862;DHT22;10591;52.532;13.348;2022-09-16T11:53:25;18.82;44.98
20862;DHT22;10591;52.532;13.348;2022-09-16T11:56:03;20.26;42.86
20862;DHT22;10591;52.532;13.348;2022-09-16T11:58:49;22.40;38.27
20862;DHT22;10591;52.532;13.348;2022-09-16T12:01:31;20.66;41.05
20862;DHT22;10591;52.532;13.348;2022-09-16T12:04:12;18.79;45.49
20862;DHT22;10591;52.532;13.348;2022-09-16T12:06:51;20.60;42.37
20862;DHT22;10591;52.532;13.348;2022-09-16T12:09:45;21.30;40.45
20862;DHT22;10591;52.532;13.348;2022-09-16T12:12:15;22.96;38.40
20862;DHT22;10591;52.532;13.348;2022-09-16T12:14:58;22.94;38.12
20862;DHT22;10591;52.532;13.348;2022-09-16T12:17:37;21.70;39.69
20862;DHT22;10591;52.532;13.348;2022-09-16T12:22:51;19.74;41.77
20862;DHT22;10591;52.532;13.348;2022-09-16T12:25:28;19.19;42.77
20862;DHT22;10591;52.532;13.348;2022-09-16T12:28:22;19.23;43.16
20862;DHT22;10591;52.532;13.348;2022-09-16T12:30:54;18.84;44.85
20862;DHT22;10591;52.532;13.348;2022-09-16T12:33:26;18.10;45.53
20862;DHT22;10591;52.532;13.348;2022-09-16T12:35:58;18.19;46.96
20862;DHT22;10591;52.532;13.348;2022-09-16T12:38:29;17.70;47.15
20862;DHT22;10591;52.532;13.348;2022-09-16T13:01:35;17.64;46.29
20862;DHT22;10591;52.532;13.348;2022-09-16T13:06:52;17.77;45.37
20862;DHT22;10591;52.532;13.348;2022-09-16T13:09:31;17.84;46.21
20862;DHT22;10591;52.532;13.348;2022-09-16T13:12:20;17.81;45.53
20862;DHT22;10591;52.532;13.348;2022-09-16T13:14:49;17.70;44.91
20862;DHT22;10591;52.532;13.348;2022-09-16T13:17:13;17.77;45.50
20862;DHT22;10591;52.532;13.348;2022-09-16T13:19:51;17.65;45.84
20862;DHT22;10591;52.532;13.348;2022-09-16T13:22:32;17.78;45.37
20862;DHT22;10591;52.532;13.348;2022-09-16T13:27:57;17.87;44.02
20862;DHT22;10591;52.532;13.348;2022-09-16T13:35:43;17.76;44.66
20862;DHT22;10591;52.532;13.348;2022-09-16T13:40:59;17.86;43.95
20862;DHT22;10591;52.532;13.348;2022-09-16T13:43:48;18.07;44.18
20862;DHT22;10591;52.532;13.348;2022-09-16T13:46:24;17.60;44.90
20862;DHT22;10591;52.532;13.348;2022-09-16T13:49:17;17.57;45.64
20862;DHT22;10591;52.532;13.348;2022-09-16T13:51:49;17.52;46.17
20862;DHT22;10591;52.532;13.348;2022-09-16T13:54:40;17.48;45.62
20862;DHT22;10591;52.532;13.348;2022-09-16T14:00:11;17.44;44.59
20862;DHT22;10591;52.532;13.348;2022-09-16T14:11:34;17.46;44.65
20862;DHT22;10591;52.532;13.348;2022-09-16T14:14:08;17.51;45.15
20862;DHT22;10591;52.532;13.348;2022-09-16T14:16:41;17.72;44.53
20862;DHT22;10591;52.532;13.348;2022-09-16T14:22:12;18.29;41.38
20862;DHT22;10591;52.532;13.348;2022-09-16T14:24:37;18.10;41.16
20862;DHT22;10591;52.532;13.348;2022-09-16T14:30:00;17.92;41.74
20862;DHT22;10591;52.532;13.348;2022-09-16T14:32:28;17.89;40.61
20862;DHT22;10591;52.532;13.348;2022-09-16T14:35:02;18.86;39.55
20862;DHT22;10591;52.532;13.348;2022-09-16T14:37:33;19.57;37.99
20862;DHT22;10591;52.532;13.348;2022-09-16T14:40:10;19.14;38.38
20862;DHT22;10591;52.532;13.348;2022-09-16T14:43:01;18.73;39.57
20862;DHT22;10591;52.532;13.348;2022-09-16T14:45:13;18.44;39.31
20862;DHT22;10591;52.532;13.348;2022-09-16T14:47:45;18.41;40.27
20862;DHT22;10591;52.532;13.348;2022-09-16T14:50:32;18.25;39.79
20862;DHT22;10591;52.532;13.348;2022-09-16T14:53:06;18.08;38.51
20862;DHT22;10591;52.532;13.348;2022-09-16T14:55:37;17.90;38.35
20862;DHT22;10591;52.532;13.348;2022-09-16T14:58:10;17.73;39.11
20862;DHT22;10591;52.532;13.348;2022-09-16T15:00:44;17.73;39.86
20862;DHT22;10591;52.532;13.348;2022-09-16T15:03:32;17.60;40.58
20862;DHT22;10591;52.532;13.348;2022-09-16T15:06:02;17.44;40.96
20862;DHT22;10591;52.532;13.348;2022-09-16T15:08:52;17.32;41.15
20862;DHT22;10591;52.532;13.348;2022-09-16T15:11:26;17.36;41.51
20862;DHT22;10591;52.532;13.348;2022-09-16T15:13:59;17.35;41.67
20862;DHT22;10591;52.532;13.348;2022-09-16T15:16:30;17.22;41.53
20862;DHT22;10591;52.532;13.348;2022-09-16T15:19:05;17.18;42.38
20862;DHT22;10591;52.532;13.348;2022-09-16T15:21:37;17.09;42.92
20862;DHT22;10591;52.532;13.348;2022-09-16T15:24:18;17.04;43.51
20862;DHT22;10591;52.532;13.348;2022-09-16T15:26:46;17.09;43.67
20862;DHT22;10591;52.532;13.348;2022-09-16T15:31:51;17.04;44.64
20862;DHT22;10591;52.532;13.348;2022-09-16T15:34:22;16.94;44.56
20862;DHT22;10591;52.532;13.348;2022-09-16T15:36:55;16.86;45.01
20862;DHT22;10591;52.532;13.348;2022-09-16T15:39:31;16.99;44.69
20862;DHT22;10591;52.532;13.348;2022-09-16T15:42:15;16.86;45.00
20862;DHT22;10591;52.532;13.348;2022-09-16T15:44:53;16.88;45.23
20862;DHT22;10591;52.532;13.348;2022-09-16T15:47:28;16.84;45.26
20862;DHT22;10591;52.532;13.348;2022-09-16T15:50:09;17.00;45.28
20862;DHT22;10591;52.532;13.348;2022-09-16T15:52:54;16.91;45.49
20862;DHT22;10591;52.532;13.348;2022-09-16T15:58:20;16.82;46.35
20862;DHT22;10591;52.532;13.348;2022-09-16T16:03:54;16.57;47.72
20862;DHT22;10591;52.532;13.348;2022-09-16T16:09:31;16.56;47.24
20862;DHT22;10591;52.532;13.348;2022-09-16T16:12:10;16.36;47.82
20862;DHT22;10591;52.532;13.348;2022-09-16T16:14:41;16.34;47.56
20862;DHT22;10591;52.532;13.348;2022-09-16T16:17:19;16.42;47.31
20862;DHT22;10591;52.532;13.348;2022-09-16T16:19:47;16.42;47.31
20862;DHT22;10591;52.532;13.348;2022-09-16T16:22:18;16.40;47.29
20862;DHT22;10591;52.532;13.348;2022-09-16T16:24:49;16.36;47.34
20862;DHT22;10591;52.532;13.348;2022-09-16T16:27:19;16.28;47.86
20862;DHT22;10591;52.532;13.348;2022-09-16T16:29:50;16.16;48.30
20862;DHT22;10591;52.532;13.348;2022-09-16T16:32:20;16.28;48.03
20862;DHT22;10591;52.532;13.348;2022-09-16T16:34:51;16.26;48.62
20862;DHT22;10591;52.532;13.348;2022-09-16T16:37:23;16.32;48.00
20862;DHT22;10591;52.532;13.348;2022-09-16T16:39:56;16.30;48.06
20862;DHT22;10591;52.532;13.348;2022-09-16T16:42:26;16.28;48.44
20862;DHT22;10591;52.532;13.348;2022-09-16T16:44:57;16.29;48.41
20862;DHT22;10591;52.532;13.348;2022-09-16T16:47:27;16.26;48.56
20862;DHT22;10591;52.532;13.348;2022-09-16T16:49:58;16.14;48.93
20862;DHT22;10591;52.532;13.348;2022-09-16T16:52:29;16.10;49.36
20862;DHT22;10591;52.532;13.348;2022-09-16T16:55:00;15.92;50.34
20862;DHT22;10591;52.532;13.348;2022-09-16T16:57:31;15.87;50.70
20862;DHT22;10591;52.532;13.348;2022-09-16T17:00:02;15.85;50.55
20862;DHT22;10591;52.532;13.348;2022-09-16T17:02:34;15.77;50.41
20862;DHT22;10591;52.532;13.348;2022-09-16T17:05:05;15.62;51.17
20862;DHT22;10591;52.532;13.348;2022-09-16T17:07:35;15.54;50.94
20862;DHT22;10591;52.532;13.348;2022-09-16T17:10:06;15.50;51.03
20862;DHT22;10591;52.532;13.348;2022-09-16T17:12:37;15.44;51.08
20862;DHT22;10591;52.532;13.348;2022-09-16T17:15:08;15.37;51.16
20862;DHT22;10591;52.532;13.348;2022-09-16T17:17:38;15.31;50.78
20862;DHT22;10591;52.532;13.348;2022-09-16T17:20:09;15.28;50.41
20862;DHT22;10591;52.532;13.348;2022-09-16T17:22:39;15.22;50.77
20862;DHT22;10591;52.532;13.348;2022-09-16T17:25:09;15.18;50.77
20862;DHT22;10591;52.532;13.348;2022-09-16T17:27:40;15.09;51.03
20862;DHT22;10591;52.532;13.348;2022-09-16T17:30:11;15.12;51.44
20862;DHT22;10591;52.532;13.348;2022-09-16T17:32:42;14.98;51.91
20862;DHT22;10591;52.532;13.348;2022-09-16T17:35:12;15.02;52.26
20862;DHT22;10591;52.532;13.348;2022-09-16T17:37:43;15.04;52.23
20862;DHT22;10591;52.532;13.348;2022-09-16T17:40:13;14.98;52.86
20862;DHT22;10591;52.532;13.348;2022-09-16T17:42:44;14.95;53.35
20862;DHT22;10591;52.532;13.348;2022-09-16T17:45:15;14.81;54.00
20862;DHT22;10591;52.532;13.348;2022-09-16T17:47:45;14.76;54.39
20862;DHT22;10591;52.532;13.348;2022-09-16T17:50:16;14.68;55.01
20862;DHT22;10591;52.532;13.348;2022-09-16T17:52:48;14.77;54.96
20862;DHT22;10591;52.532;13.348;2022-09-16T17:55:18;14.72;55.26
20862;DHT22;10591;52.532;13.348;2022-09-16T17:57:49;14.61;55.87
20862;DHT22;10591;52.532;13.348;2022-09-16T18:00:19;14.61;56.12
20862;DHT22;10591;52.532;13.348;2022-09-16T18:02:49;14.50;56.40
20862;DHT22;10591;52.532;13.348;2022-09-16T18:05:20;14.54;56.52
20862;DHT22;10591;52.532;13.348;2022-09-16T18:07:52;14.50;56.88
20862;DHT22;10591;52.532;13.348;2022-09-16T18:10:22;14.58;56.86
20862;DHT22;10591;52.532;13.348;2022-09-16T18:12:53;14.49;57.08
20862;DHT22;10591;52.532;13.348;2022-09-16T18:15:24;14.46;57.29
20862;DHT22;10591;52.532;13.348;2022-09-16T18:17:54;14.42;57.40
20862;DHT22;10591;52.532;13.348;2022-09-16T18:20:25;14.40;57.61
20862;DHT22;10591;52.532;13.348;2022-09-16T18:22:55;14.36;57.78
20862;DHT22;10591;52.532;13.348;2022-09-16T18:25:25;14.32;57.86
20862;DHT22;10591;52.532;13.348;2022-09-16T18:27:56;14.35;58.04
20862;DHT22;10591;52.532;13.348;2022-09-16T18:30:26;14.30;58.13
20862;DHT22;10591;52.532;13.348;2022-09-16T18:32:57;14.24;58.79
20862;DHT22;10591;52.532;13.348;2022-09-16T18:35:28;14.21;58.58
20862;DHT22;10591;52.532;13.348;2022-09-16T18:37:58;14.18;58.78